Time;durP1;ratioP1;P1;durP2;ratioP2;P2;SDS_P1;SDS_P2;PMS_P1;PMS_P2;Temp;Humidity;BMP_temperature;BMP_pressure;BME280_temperature;BME280_humidity;BME280_pressure;Samples;Min_cycle;Max_cycle;Signal;HPM_P1;HPM_P2
2022/05/12 00:01:04;;;;;;;5.22;3.05;;;;;;;;;;5029254;28;20126;-65
2022/05/12 00:03:33;;;;;;;5.53;3.20;;;;;;;;;;5026544;28;20481;-66
2022/05/12 00:06:01;;;;;;;4.68;3.33;;;;;;;;;;5025669;28;20502;-66
2022/05/12 00:08:32;;;;;;;6.70;3.17;;;;;;;;;;5024977;28;20080;-66
2022/05/12 00:11:00;;;;;;;6.63;3.45;;;;;;;;;;5027288;28;20133;-70
2022/05/12 00:13:30;;;;;;;3.75;2.95;;;;;;;;;;5025012;28;20076;-66
2022/05/12 00:15:58;;;;;;;5.05;2.85;;;;;;;;;;5019993;28;20076;-66
2022/05/12 00:18:27;;;;;;;6.82;3.85;;;;;;;;;;5027592;28;20050;-66
2022/05/12 00:20:56;;;;;;;13.10;4.45;;;;;;;;;;5014478;28;20089;-68
2022/05/12 00:23:26;;;;;;;8.18;4.15;;;;;;;;;;5021003;28;20140;-66
2022/05/12 00:25:55;;;;;;;5.68;3.30;;;;;;;;;;5028123;28;20120;-66
2022/05/12 00:28:25;;;;;;;6.68;3.20;;;;;;;;;;5025970;28;20175;-65
2022/05/12 00:30:57;;;;;;;4.28;2.70;;;;;;;;;;5017127;28;20042;-65
2022/05/12 00:33:27;;;;;;;4.45;3.10;;;;;;;;;;5034573;28;20056;-66
2022/05/12 00:35:56;;;;;;;4.93;3.10;;;;;;;;;;5032648;28;20088;-68
2022/05/12 00:38:24;;;;;;;6.85;3.45;;;;;;;;;;5025871;28;20069;-65
2022/05/12 00:40:52;;;;;;;4.63;3.30;;;;;;;;;;5022012;28;20132;-65
2022/05/12 00:43:42;;;;;;;4.07;2.55;;;;;;;;;;5020653;28;20133;-69
2022/05/12 00:46:13;;;;;;;4.63;2.92;;;;;;;;;;5029496;28;20128;-66
2022/05/12 00:48:41;;;;;;;5.45;2.80;;;;;;;;;;5030928;28;20497;-65
2022/05/12 00:51:11;;;;;;;4.70;2.70;;;;;;;;;;5031035;28;20080;-66
2022/05/12 00:53:40;;;;;;;5.93;2.65;;;;;;;;;;5025643;28;20055;-67
2022/05/12 00:56:10;;;;;;;6.57;3.72;;;;;;;;;;5031843;28;20083;-66
2022/05/12 00:58:38;;;;;;;4.03;2.85;;;;;;;;;;5030181;28;20141;-68
2022/05/12 01:01:08;;;;;;;4.00;3.25;;;;;;;;;;5030527;28;20065;-65
2022/05/12 01:03:39;;;;;;;4.07;2.83;;;;;;;;;;5029626;28;20120;-65
2022/05/12 01:06:08;;;;;;;5.30;3.17;;;;;;;;;;5031192;28;20041;-67
2022/05/12 01:08:37;;;;;;;3.95;2.72;;;;;;;;;;5023929;28;20050;-65
2022/05/12 01:11:13;;;;;;;4.30;3.13;;;;;;;;;;5016889;28;20050;-66
2022/05/12 01:13:41;;;;;;;3.60;2.75;;;;;;;;;;5026418;28;20045;-66
2022/05/12 01:16:09;;;;;;;3.83;2.70;;;;;;;;;;5028990;28;20054;-65
2022/05/12 01:18:40;;;;;;;5.43;2.70;;;;;;;;;;5037279;28;20053;-68
2022/05/12 01:21:10;;;;;;;6.40;3.03;;;;;;;;;;5032341;28;20485;-66
2022/05/12 01:23:42;;;;;;;4.57;2.85;;;;;;;;;;5029401;28;20136;-66
2022/05/12 01:26:12;;;;;;;5.13;2.53;;;;;;;;;;5031689;28;20128;-65
2022/05/12 01:28:41;;;;;;;4.32;2.95;;;;;;;;;;5021280;28;20131;-69
2022/05/12 01:31:10;;;;;;;3.88;2.53;;;;;;;;;;5029881;28;20044;-66
2022/05/12 01:33:38;;;;;;;3.88;2.90;;;;;;;;;;5035737;28;20111;-68
2022/05/12 01:36:06;;;;;;;4.22;3.28;;;;;;;;;;5032614;28;20045;-65
2022/05/12 01:38:35;;;;;;;6.72;3.00;;;;;;;;;;5022053;28;20199;-66
2022/05/12 01:41:07;;;;;;;3.85;2.72;;;;;;;;;;5026749;28;20569;-65
2022/05/12 01:43:35;;;;;;;4.50;2.78;;;;;;;;;;5031456;28;20076;-65
2022/05/12 01:46:07;;;;;;;4.82;2.75;;;;;;;;;;5026660;28;20081;-65
2022/05/12 01:48:35;;;;;;;4.65;3.05;;;;;;;;;;5026189;28;20053;-65
2022/05/12 01:51:07;;;;;;;3.22;2.47;;;;;;;;;;5030074;28;20119;-66
2022/05/12 01:53:35;;;;;;;3.95;2.88;;;;;;;;;;5027725;28;20083;-66
2022/05/12 01:56:09;;;;;;;4.18;2.55;;;;;;;;;;5034213;28;20132;-66
2022/05/12 01:58:38;;;;;;;5.65;3.30;;;;;;;;;;5023954;28;20076;-67
2022/05/12 02:01:07;;;;;;;4.93;2.88;;;;;;;;;;5016425;28;20125;-65
2022/05/12 02:03:35;;;;;;;6.15;3.08;;;;;;;;;;5023050;28;20045;-65
2022/05/12 02:06:07;;;;;;;8.50;2.92;;;;;;;;;;5030849;28;20128;-65
2022/05/12 02:08:35;;;;;;;4.68;2.88;;;;;;;;;;5029262;28;20060;-70
2022/05/12 02:11:06;;;;;;;3.83;2.80;;;;;;;;;;5030957;28;20136;-65
2022/05/12 02:13:36;;;;;;;3.95;2.78;;;;;;;;;;5023753;28;20418;-65
2022/05/12 02:16:07;;;;;;;5.03;2.80;;;;;;;;;;5029130;28;20715;-65
2022/05/12 02:18:35;;;;;;;8.40;2.83;;;;;;;;;;5028582;28;20084;-66
2022/05/12 02:21:05;;;;;;;4.22;2.83;;;;;;;;;;5032330;28;20048;-65
2022/05/12 02:23:34;;;;;;;3.38;2.67;;;;;;;;;;5029669;28;20120;-65
2022/05/12 02:26:05;;;;;;;4.30;2.75;;;;;;;;;;5022054;28;20060;-65
2022/05/12 02:28:33;;;;;;;9.77;3.15;;;;;;;;;;5029093;28;20055;-65
2022/05/12 02:31:06;;;;;;;5.50;2.90;;;;;;;;;;5029759;28;20136;-65
2022/05/12 02:33:34;;;;;;;5.30;3.38;;;;;;;;;;5026628;28;20067;-65
2022/05/12 02:36:05;;;;;;;5.15;2.75;;;;;;;;;;5021204;28;20077;-66
2022/05/12 02:38:33;;;;;;;3.92;2.45;;;;;;;;;;5028600;28;20049;-65
2022/05/12 02:41:04;;;;;;;5.43;3.00;;;;;;;;;;5025582;28;20052;-65
2022/05/12 02:43:32;;;;;;;11.13;3.30;;;;;;;;;;5030149;28;20144;-66
2022/05/12 02:46:03;;;;;;;4.07;3.20;;;;;;;;;;5031243;28;20084;-65
2022/05/12 02:48:34;;;;;;;3.70;2.83;;;;;;;;;;5028236;28;20339;-66
2022/05/12 02:51:05;;;;;;;6.20;2.80;;;;;;;;;;5026582;28;20054;-66
2022/05/12 02:53:34;;;;;;;4.70;3.00;;;;;;;;;;5017085;28;20144;-68
2022/05/12 02:56:05;;;;;;;5.47;2.58;;;;;;;;;;5026055;28;20046;-70
2022/05/12 02:58:34;;;;;;;6.53;3.10;;;;;;;;;;5029363;28;20149;-65
2022/05/12 03:01:05;;;;;;;6.85;3.25;;;;;;;;;;5029507;28;20132;-65
2022/05/12 03:03:35;;;;;;;4.38;2.85;;;;;;;;;;5025998;28;20053;-65
2022/05/12 03:06:06;;;;;;;6.25;2.70;;;;;;;;;;5029077;28;20533;-68
2022/05/12 03:08:34;;;;;;;3.88;2.70;;;;;;;;;;5027913;28;20140;-65
2022/05/12 03:11:05;;;;;;;4.05;2.40;;;;;;;;;;5014605;28;20314;-68
2022/05/12 03:13:34;;;;;;;3.65;2.88;;;;;;;;;;5026733;28;20467;-66
2022/05/12 03:16:04;;;;;;;3.65;2.45;;;;;;;;;;5027882;28;20088;-66
2022/05/12 03:18:34;;;;;;;4.10;2.55;;;;;;;;;;5023805;28;20069;-67
2022/05/12 03:21:04;;;;;;;4.65;2.60;;;;;;;;;;5022653;28;20132;-69
2022/05/12 03:23:33;;;;;;;4.18;2.53;;;;;;;;;;5028464;28;20048;-66
2022/05/12 03:26:01;;;;;;;4.30;2.75;;;;;;;;;;5023356;28;20177;-67
2022/05/12 03:28:32;;;;;;;3.40;2.42;;;;;;;;;;5025144;28;20774;-66
2022/05/12 03:31:00;;;;;;;6.55;2.45;;;;;;;;;;5016429;28;20140;-65
2022/05/12 03:33:31;;;;;;;4.15;2.47;;;;;;;;;;5022819;28;20494;-66
2022/05/12 03:36:00;;;;;;;3.80;2.72;;;;;;;;;;5024176;28;20049;-66
2022/05/12 03:38:31;;;;;;;5.18;2.40;;;;;;;;;;5027882;28;20692;-66
2022/05/12 03:40:59;;;;;;;3.60;2.33;;;;;;;;;;5017278;28;20037;-69
2022/05/12 03:46:14;;;;;;;6.60;2.28;;;;;;;;;;5029874;28;20045;-66
2022/05/12 03:48:42;;;;;;;5.00;2.90;;;;;;;;;;5015153;28;20042;-66
2022/05/12 03:51:12;;;;;;;4.57;2.72;;;;;;;;;;5026615;28;20065;-65
2022/05/12 03:53:40;;;;;;;4.55;2.67;;;;;;;;;;5026533;28;20472;-65
2022/05/12 03:56:09;;;;;;;9.55;2.78;;;;;;;;;;5028608;28;20081;-66
2022/05/12 03:58:38;;;;;;;3.60;2.50;;;;;;;;;;5020831;28;20155;-67
2022/05/12 04:01:06;;;;;;;4.25;2.20;;;;;;;;;;5025226;28;20049;-65
2022/05/12 04:03:35;;;;;;;4.00;2.42;;;;;;;;;;5027677;28;20057;-65
2022/05/12 04:06:06;;;;;;;3.35;2.42;;;;;;;;;;5027305;28;20037;-67
2022/05/12 04:08:35;;;;;;;3.55;2.00;;;;;;;;;;5028264;28;20132;-65
2022/05/12 04:11:07;;;;;;;2.63;1.92;;;;;;;;;;5028468;28;20076;-65
2022/05/12 04:13:35;;;;;;;2.83;2.10;;;;;;;;;;5027537;28;20046;-66
2022/05/12 04:16:08;;;;;;;4.85;2.40;;;;;;;;;;5029627;28;20153;-65
2022/05/12 04:18:36;;;;;;;4.38;2.63;;;;;;;;;;5028949;28;20504;-65
2022/05/12 04:21:07;;;;;;;5.03;2.30;;;;;;;;;;5024198;28;20045;-66
2022/05/12 04:23:37;;;;;;;4.18;1.83;;;;;;;;;;5019880;28;20428;-66
2022/05/12 04:26:06;;;;;;;3.47;1.95;;;;;;;;;;5019253;28;20144;-65
2022/05/12 04:28:34;;;;;;;3.75;2.00;;;;;;;;;;5018936;28;20045;-66
2022/05/12 04:31:06;;;;;;;2.83;1.70;;;;;;;;;;5027867;28;20485;-69
2022/05/12 04:36:20;;;;;;;4.97;1.98;;;;;;;;;;5020523;28;20088;-69
2022/05/12 04:38:49;;;;;;;4.28;1.98;;;;;;;;;;5018897;28;20126;-65
2022/05/12 04:41:18;;;;;;;5.10;1.95;;;;;;;;;;5018852;28;20136;-65
2022/05/12 04:43:46;;;;;;;3.53;1.95;;;;;;;;;;5016534;28;20073;-67
2022/05/12 04:46:14;;;;;;;3.15;1.85;;;;;;;;;;5017865;28;20085;-66
2022/05/12 04:48:43;;;;;;;2.25;1.80;;;;;;;;;;5018869;28;20136;-65
2022/05/12 04:51:11;;;;;;;3.00;1.45;;;;;;;;;;5027211;28;20141;-67
2022/05/12 04:53:40;;;;;;;3.05;1.80;;;;;;;;;;5011388;28;20081;-66
2022/05/12 04:56:09;;;;;;;4.38;1.77;;;;;;;;;;5017501;28;20091;-67
2022/05/12 04:58:38;;;;;;;5.22;2.35;;;;;;;;;;5024532;28;20092;-67
2022/05/12 05:01:06;;;;;;;2.90;1.73;;;;;;;;;;5022128;28;20132;-65
2022/05/12 05:03:34;;;;;;;5.40;1.90;;;;;;;;;;5023424;28;20088;-65
2022/05/12 05:06:06;;;;;;;6.18;2.10;;;;;;;;;;5021431;28;20077;-65
2022/05/12 05:08:34;;;;;;;3.13;1.73;;;;;;;;;;5024050;28;20082;-65
2022/05/12 05:11:06;;;;;;;2.22;1.60;;;;;;;;;;5022980;28;20493;-65
2022/05/12 05:13:36;;;;;;;4.63;1.83;;;;;;;;;;5026696;28;20449;-66
2022/05/12 05:16:07;;;;;;;4.22;2.00;;;;;;;;;;5019761;28;20133;-66
2022/05/12 05:18:36;;;;;;;5.43;2.03;;;;;;;;;;5022051;28;20061;-65
2022/05/12 05:21:08;;;;;;;3.03;2.00;;;;;;;;;;5029268;28;20449;-67
2022/05/12 05:23:36;;;;;;;5.85;1.52;;;;;;;;;;5020012;28;20053;-66
2022/05/12 05:26:08;;;;;;;6.25;1.65;;;;;;;;;;5018135;28;20493;-66
2022/05/12 05:28:38;;;;;;;4.43;2.22;;;;;;;;;;5015199;28;20516;-65
2022/05/12 05:31:06;;;;;;;6.75;1.75;;;;;;;;;;5029935;28;20105;-67
2022/05/12 05:33:34;;;;;;;3.05;1.88;;;;;;;;;;5031781;28;20041;-66
2022/05/12 05:36:06;;;;;;;5.47;1.95;;;;;;;;;;5032672;28;20132;-67
2022/05/12 05:38:34;;;;;;;2.97;1.77;;;;;;;;;;5032959;28;20136;-65
2022/05/12 05:41:05;;;;;;;3.15;1.80;;;;;;;;;;5032473;28;20083;-65
2022/05/12 05:43:33;;;;;;;2.72;1.83;;;;;;;;;;5018832;28;20471;-65
2022/05/12 05:46:06;;;;;;;2.97;1.85;;;;;;;;;;5011611;28;20531;-66
2022/05/12 05:48:34;;;;;;;3.30;1.80;;;;;;;;;;5010675;28;20065;-66
2022/05/12 05:53:50;;;;;;;3.92;2.10;;;;;;;;;;5010868;28;20054;-66
2022/05/12 05:56:18;;;;;;;4.60;2.00;;;;;;;;;;5022844;28;20045;-66
2022/05/12 05:58:47;;;;;;;3.00;1.42;;;;;;;;;;5030707;28;20049;-66
2022/05/12 06:01:17;;;;;;;2.67;1.80;;;;;;;;;;5031648;28;20049;-65
2022/05/12 06:03:46;;;;;;;3.15;1.60;;;;;;;;;;5038148;28;20050;-65
2022/05/12 06:06:15;;;;;;;3.38;1.85;;;;;;;;;;5032578;28;20114;-66
2022/05/12 06:08:43;;;;;;;5.85;2.08;;;;;;;;;;5032049;28;20493;-66
2022/05/12 06:11:12;;;;;;;5.97;2.30;;;;;;;;;;5030664;28;20056;-65
2022/05/12 06:13:41;;;;;;;3.42;2.25;;;;;;;;;;5031685;28;20051;-65
2022/05/12 06:16:09;;;;;;;3.42;2.00;;;;;;;;;;5030498;28;20056;-66
2022/05/12 06:18:39;;;;;;;2.17;1.73;;;;;;;;;;5012115;28;20065;-66
2022/05/12 06:21:11;;;;;;;4.43;2.03;;;;;;;;;;5012665;28;20524;-65
2022/05/12 06:23:40;;;;;;;4.75;2.03;;;;;;;;;;5021116;28;20050;-65
2022/05/12 06:26:13;;;;;;;4.13;1.55;;;;;;;;;;5029894;28;20041;-66
2022/05/12 06:28:45;;;;;;;4.38;2.25;;;;;;;;;;5031014;28;20136;-66
2022/05/12 06:31:13;;;;;;;3.08;1.63;;;;;;;;;;5026774;28;20050;-65
2022/05/12 06:33:44;;;;;;;6.43;1.92;;;;;;;;;;5012671;28;20097;-67
2022/05/12 06:36:13;;;;;;;3.70;1.67;;;;;;;;;;5025207;28;20097;-68
2022/05/12 06:38:41;;;;;;;2.45;1.80;;;;;;;;;;5029480;28;20080;-66
2022/05/12 06:41:10;;;;;;;3.88;2.00;;;;;;;;;;5029735;28;20042;-65
2022/05/12 06:43:38;;;;;;;4.53;1.80;;;;;;;;;;5029861;28;21282;-67
2022/05/12 06:46:11;;;;;;;2.28;1.58;;;;;;;;;;5020511;28;20173;-65
2022/05/12 06:48:39;;;;;;;6.03;1.98;;;;;;;;;;5018899;28;20121;-66
2022/05/12 06:51:11;;;;;;;4.03;1.85;;;;;;;;;;5019499;28;20042;-67
2022/05/12 06:53:39;;;;;;;4.00;1.92;;;;;;;;;;5029959;28;20080;-66
2022/05/12 06:56:13;;;;;;;2.80;2.25;;;;;;;;;;5029288;28;20124;-66
2022/05/12 06:58:42;;;;;;;2.53;1.75;;;;;;;;;;5017777;28;20183;-65
2022/05/12 07:01:12;;;;;;;4.50;1.88;;;;;;;;;;5027702;28;20060;-66
2022/05/12 07:03:41;;;;;;;4.30;2.05;;;;;;;;;;5029777;28;20053;-70
2022/05/12 07:06:12;;;;;;;3.50;1.90;;;;;;;;;;5029834;28;20401;-66
2022/05/12 07:08:41;;;;;;;4.22;1.90;;;;;;;;;;5025850;28;20048;-66
2022/05/12 07:11:10;;;;;;;2.33;1.63;;;;;;;;;;5020508;28;20120;-66
2022/05/12 07:13:38;;;;;;;3.25;1.95;;;;;;;;;;5021091;28;20153;-67
2022/05/12 07:16:07;;;;;;;4.68;1.92;;;;;;;;;;5029514;28;20049;-65
2022/05/12 07:18:36;;;;;;;4.22;2.25;;;;;;;;;;5014021;28;20410;-65
2022/05/12 07:26:51;;;;;;;6.28;2.65;;;;;;;;;;5025664;28;20107;-65
2022/05/12 07:29:21;;;;;;;3.25;1.90;;;;;;;;;;5029167;28;20049;-65
2022/05/12 07:31:50;;;;;;;4.05;2.10;;;;;;;;;;5029485;28;20042;-67
2022/05/12 07:34:19;;;;;;;4.35;2.25;;;;;;;;;;5030644;28;20124;-66
2022/05/12 07:36:50;;;;;;;3.42;1.88;;;;;;;;;;5026125;28;20454;-65
2022/05/12 07:39:22;;;;;;;3.90;2.10;;;;;;;;;;5010862;28;20057;-65
2022/05/12 07:41:52;;;;;;;5.53;1.92;;;;;;;;;;5016687;28;20056;-66
2022/05/12 07:44:21;;;;;;;4.20;2.20;;;;;;;;;;5010947;28;20072;-66
2022/05/12 07:46:50;;;;;;;6.78;1.88;;;;;;;;;;5025762;28;20124;-66
2022/05/12 07:49:18;;;;;;;2.58;1.63;;;;;;;;;;5027828;28;20053;-66
2022/05/12 07:51:49;;;;;;;5.93;2.10;;;;;;;;;;5021298;28;20046;-67
2022/05/12 07:54:18;;;;;;;5.88;2.25;;;;;;;;;;5016520;28;20099;-67
2022/05/12 07:56:48;;;;;;;5.78;2.33;;;;;;;;;;5025981;28;20052;-67
2022/05/12 07:59:16;;;;;;;3.08;1.80;;;;;;;;;;5022878;28;20317;-66
2022/05/12 08:01:45;;;;;;;4.10;1.85;;;;;;;;;;5028595;28;20061;-66
2022/05/12 08:04:14;;;;;;;4.50;1.70;;;;;;;;;;5025985;28;20128;-66
2022/05/12 08:06:43;;;;;;;4.85;2.10;;;;;;;;;;5027436;28;20045;-67
2022/05/12 08:09:13;;;;;;;4.68;1.95;;;;;;;;;;5026099;28;20493;-66
2022/05/12 08:11:41;;;;;;;3.33;2.00;;;;;;;;;;5028057;28;20041;-65
2022/05/12 08:14:11;;;;;;;5.30;2.15;;;;;;;;;;5023622;28;20049;-66
2022/05/12 08:16:40;;;;;;;4.38;1.73;;;;;;;;;;5026189;28;20940;-66
2022/05/12 08:19:09;;;;;;;5.57;2.28;;;;;;;;;;5011358;28;20519;-67
2022/05/12 08:21:38;;;;;;;5.50;2.08;;;;;;;;;;5028717;28;20049;-65
2022/05/12 08:24:07;;;;;;;5.93;2.10;;;;;;;;;;5017139;28;20053;-66
2022/05/12 08:26:35;;;;;;;7.38;2.28;;;;;;;;;;5010459;28;20717;-66
2022/05/12 08:29:04;;;;;;;3.67;1.88;;;;;;;;;;5029256;28;20042;-65
2022/05/12 08:31:34;;;;;;;2.65;1.90;;;;;;;;;;5028897;28;20555;-66
2022/05/12 08:34:03;;;;;;;2.42;1.80;;;;;;;;;;5027377;28;20066;-68
2022/05/12 08:36:31;;;;;;;4.95;2.40;;;;;;;;;;5027400;28;20095;-66
2022/05/12 08:39:00;;;;;;;4.40;2.03;;;;;;;;;;5026768;28;20045;-66
2022/05/12 08:41:30;;;;;;;2.47;1.80;;;;;;;;;;5026537;28;20050;-66
2022/05/12 08:44:00;;;;;;;3.95;2.38;;;;;;;;;;5028262;28;20169;-66
2022/05/12 08:46:38;;;;;;;2.72;2.00;;;;;;;;;;5017094;28;20045;-66
2022/05/12 08:49:10;;;;;;;4.53;2.40;;;;;;;;;;5013777;28;20054;-66
2022/05/12 08:51:39;;;;;;;6.38;2.53;;;;;;;;;;5012017;28;20460;-69
2022/05/12 08:54:12;;;;;;;4.63;2.85;;;;;;;;;;5031766;28;20053;-68
2022/05/12 08:56:40;;;;;;;4.80;2.30;;;;;;;;;;5016339;28;20057;-68
2022/05/12 08:59:09;;;;;;;2.28;2.05;;;;;;;;;;5031448;28;20125;-68
2022/05/12 09:01:42;;;;;;;5.72;2.63;;;;;;;;;;5020414;28;20045;-67
2022/05/12 09:04:27;;;;;;;2.83;1.90;;;;;;;;;;5022497;28;20061;-66
2022/05/12 09:06:59;;;;;;;4.68;2.20;;;;;;;;;;5023443;28;20132;-66
2022/05/12 09:09:30;;;;;;;3.38;2.05;;;;;;;;;;5040700;28;20459;-67
2022/05/12 09:12:02;;;;;;;5.82;2.10;;;;;;;;;;5047033;28;21601;-70
2022/05/12 09:14:35;;;;;;;5.50;2.00;;;;;;;;;;5024396;28;20054;-69
2022/05/12 09:17:08;;;;;;;3.85;1.98;;;;;;;;;;5025109;28;20053;-66
2022/05/12 09:19:38;;;;;;;7.70;2.33;;;;;;;;;;5014540;28;20064;-67
2022/05/12 09:22:07;;;;;;;3.47;2.03;;;;;;;;;;5032266;28;20256;-71
2022/05/12 09:24:35;;;;;;;3.13;2.30;;;;;;;;;;5021313;28;20107;-66
2022/05/12 09:27:08;;;;;;;5.30;2.20;;;;;;;;;;5025092;28;20509;-66
2022/05/12 09:29:44;;;;;;;2.80;2.03;;;;;;;;;;5028190;28;20046;-68
2022/05/12 09:32:22;;;;;;;5.00;2.40;;;;;;;;;;5033897;28;20120;-68
2022/05/12 09:35:06;;;;;;;5.30;2.28;;;;;;;;;;5052821;28;20075;-66
2022/05/12 09:37:37;;;;;;;4.32;2.25;;;;;;;;;;5024570;28;20428;-66
2022/05/12 09:40:23;;;;;;;4.75;2.20;;;;;;;;;;5023434;28;20046;-70
2022/05/12 09:42:53;;;;;;;4.18;2.20;;;;;;;;;;5028285;28;20045;-67
2022/05/12 09:45:27;;;;;;;4.15;2.38;;;;;;;;;;5027323;28;21443;-67
2022/05/12 09:48:18;;;;;;;3.40;2.25;;;;;;;;;;5031546;28;20115;-67
2022/05/12 09:50:48;;;;;;;5.40;2.40;;;;;;;;;;5028795;28;20096;-66
2022/05/12 09:53:24;;;;;;;4.90;2.33;;;;;;;;;;5025318;28;20038;-69
2022/05/12 09:56:00;;;;;;;4.05;2.50;;;;;;;;;;5028551;28;20076;-66
2022/05/12 09:58:31;;;;;;;5.47;2.45;;;;;;;;;;5024214;28;20037;-66
2022/05/12 10:01:15;;;;;;;5.28;2.65;;;;;;;;;;5031894;28;20053;-67
2022/05/12 10:09:18;;;;;;;6.72;2.60;;;;;;;;;;4992497;28;20355;-67
2022/05/12 10:11:49;;;;;;;5.55;2.70;;;;;;;;;;4993329;28;20090;-67
2022/05/12 10:14:23;;;;;;;7.00;3.08;;;;;;;;;;5003265;28;20514;-67
2022/05/12 10:16:52;;;;;;;5.22;2.65;;;;;;;;;;5010619;28;20069;-66
2022/05/12 10:19:22;;;;;;;6.32;2.60;;;;;;;;;;5010880;28;20144;-68
2022/05/12 10:21:53;;;;;;;4.28;2.65;;;;;;;;;;5006130;28;20054;-66
2022/05/12 10:24:28;;;;;;;5.07;2.30;;;;;;;;;;5011348;28;20133;-67
2022/05/12 10:26:58;;;;;;;4.88;3.00;;;;;;;;;;5000913;28;20100;-67
2022/05/12 10:29:29;;;;;;;3.50;2.60;;;;;;;;;;5007514;28;20144;-68
2022/05/12 10:32:00;;;;;;;4.88;2.28;;;;;;;;;;5002899;28;20506;-70
2022/05/12 10:34:38;;;;;;;5.25;2.80;;;;;;;;;;5006696;28;20367;-68
2022/05/12 10:37:12;;;;;;;3.35;2.42;;;;;;;;;;5009351;28;20057;-66
2022/05/12 10:39:44;;;;;;;5.32;2.78;;;;;;;;;;5004008;28;20081;-67
2022/05/12 10:42:18;;;;;;;5.40;2.42;;;;;;;;;;5010056;28;20141;-68
2022/05/12 10:45:01;;;;;;;8.30;2.20;;;;;;;;;;5000261;28;20046;-69
2022/05/12 10:47:35;;;;;;;5.40;2.60;;;;;;;;;;5006186;28;20141;-67
2022/05/12 10:50:09;;;;;;;5.70;2.70;;;;;;;;;;5001319;28;20133;-67
2022/05/12 10:52:43;;;;;;;5.32;2.70;;;;;;;;;;5013677;28;20389;-67
2022/05/12 10:55:18;;;;;;;4.45;2.42;;;;;;;;;;5019969;28;20080;-67
2022/05/12 10:58:03;;;;;;;6.60;2.55;;;;;;;;;;5010737;28;20128;-68
2022/05/12 11:00:39;;;;;;;6.78;2.78;;;;;;;;;;4994442;28;20054;-67
2022/05/12 11:03:11;;;;;;;4.03;2.53;;;;;;;;;;5008149;28;20085;-67
2022/05/12 11:05:42;;;;;;;3.97;2.50;;;;;;;;;;5026826;28;20524;-71
2022/05/12 11:08:16;;;;;;;4.60;2.28;;;;;;;;;;5027596;28;20132;-68
2022/05/12 11:10:46;;;;;;;4.93;2.53;;;;;;;;;;5015995;28;20092;-72
2022/05/12 11:13:19;;;;;;;5.82;2.33;;;;;;;;;;5026816;28;20049;-72
2022/05/12 11:15:51;;;;;;;7.22;2.40;;;;;;;;;;5032771;28;20049;-67
2022/05/12 11:18:23;;;;;;;5.50;2.33;;;;;;;;;;5022722;28;20071;-70
2022/05/12 11:20:56;;;;;;;4.53;2.50;;;;;;;;;;5021242;28;20057;-67
2022/05/12 11:23:30;;;;;;;4.10;2.30;;;;;;;;;;5019131;28;20046;-68
2022/05/12 11:26:04;;;;;;;4.22;2.75;;;;;;;;;;5026368;28;20177;-71
2022/05/12 11:31:24;;;;;;;4.30;2.42;;;;;;;;;;5030239;28;20096;-67
2022/05/12 11:33:54;;;;;;;3.50;2.63;;;;;;;;;;5028052;28;20490;-67
2022/05/12 11:36:37;;;;;;;5.60;2.30;;;;;;;;;;5029380;28;20045;-67
2022/05/12 11:39:20;;;;;;;4.60;2.47;;;;;;;;;;5011431;28;20076;-67
2022/05/12 11:41:49;;;;;;;3.75;2.40;;;;;;;;;;5010708;28;20054;-67
2022/05/12 11:44:34;;;;;;;5.78;2.60;;;;;;;;;;5025538;28;20045;-67
2022/05/12 11:47:18;;;;;;;5.63;2.70;;;;;;;;;;5022472;28;20042;-68
2022/05/12 11:49:57;;;;;;;9.32;2.58;;;;;;;;;;4987380;28;20521;-69
2022/05/12 11:52:32;;;;;;;4.13;2.83;;;;;;;;;;5026446;28;20128;-69
2022/05/12 11:55:03;;;;;;;5.53;2.88;;;;;;;;;;5028172;28;20114;-67
2022/05/12 11:57:38;;;;;;;3.67;2.28;;;;;;;;;;5025824;28;20527;-69
2022/05/12 12:00:08;;;;;;;;;;;;;;;;;;5024767;28;20144;-67
2022/05/12 12:02:39;;;;;;;4.50;2.38;;;;;;;;;;5010323;28;19927;-68
2022/05/12 12:05:09;;;;;;;3.70;2.47;;;;;;;;;;5025578;28;20064;-67
2022/05/12 12:07:57;;;;;;;3.10;2.35;;;;;;;;;;5026194;28;20045;-67
2022/05/12 12:10:33;;;;;;;3.35;2.60;;;;;;;;;;5021856;28;20053;-67
2022/05/12 12:13:05;;;;;;;4.03;2.67;;;;;;;;;;5027645;28;20056;-67
2022/05/12 12:16:00;;;;;;;4.43;2.58;;;;;;;;;;5015597;28;20397;-70
2022/05/12 12:18:48;;;;;;;5.38;2.40;;;;;;;;;;4980268;28;20183;-67
2022/05/12 12:21:29;;;;;;;5.65;2.75;;;;;;;;;;5027318;28;20046;-68
2022/05/12 12:23:59;;;;;;;5.10;2.70;;;;;;;;;;5029280;28;20049;-71
2022/05/12 12:26:32;;;;;;;3.97;2.58;;;;;;;;;;5022949;28;20038;-66
2022/05/12 12:29:15;;;;;;;4.93;2.60;;;;;;;;;;5018122;28;20493;-67
2022/05/12 12:31:45;;;;;;;6.88;2.70;;;;;;;;;;5020881;28;20125;-68
2022/05/12 12:34:15;;;;;;;4.70;2.55;;;;;;;;;;5013733;28;20466;-68
2022/05/12 12:37:05;;;;;;;3.67;2.60;;;;;;;;;;5025095;28;20053;-68
2022/05/12 12:39:38;;;;;;;4.88;3.00;;;;;;;;;;5025709;28;20041;-67
2022/05/12 12:42:09;;;;;;;3.97;2.60;;;;;;;;;;5029145;28;20103;-67
2022/05/12 12:44:44;;;;;;;4.25;2.92;;;;;;;;;;5030291;28;20132;-67
2022/05/12 12:47:17;;;;;;;4.85;2.72;;;;;;;;;;5025555;28;20041;-67
2022/05/12 12:49:49;;;;;;;3.50;2.75;;;;;;;;;;5022610;28;20054;-68
2022/05/12 12:52:18;;;;;;;3.58;2.70;;;;;;;;;;5028284;28;20132;-68
2022/05/12 12:57:43;;;;;;;7.05;3.00;;;;;;;;;;5024297;28;20064;-69
2022/05/12 13:00:15;;;;;;;5.50;2.92;;;;;;;;;;5025781;28;20497;-69
2022/05/12 13:02:45;;;;;;;4.55;2.75;;;;;;;;;;5016868;28;20049;-69
2022/05/12 13:05:18;;;;;;;4.05;2.67;;;;;;;;;;5016619;28;20476;-67
2022/05/12 13:07:54;;;;;;;6.47;2.80;;;;;;;;;;5022284;28;20046;-71
2022/05/12 13:10:23;;;;;;;6.15;2.80;;;;;;;;;;5022094;28;20481;-68
2022/05/12 13:12:53;;;;;;;3.65;2.88;;;;;;;;;;5026100;28;20477;-68
2022/05/12 13:15:24;;;;;;;5.07;2.45;;;;;;;;;;5025122;28;20049;-68
2022/05/12 13:17:56;;;;;;;4.28;2.40;;;;;;;;;;5026286;28;20082;-68
2022/05/12 13:20:45;;;;;;;4.00;3.17;;;;;;;;;;5012702;28;20056;-68
2022/05/12 13:23:17;;;;;;;3.35;2.90;;;;;;;;;;5023498;28;20524;-69
2022/05/12 13:25:45;;;;;;;3.70;2.58;;;;;;;;;;5024498;28;20060;-67
2022/05/12 13:28:16;;;;;;;3.75;2.60;;;;;;;;;;5021771;28;20128;-68
2022/05/12 13:30:47;;;;;;;3.70;2.90;;;;;;;;;;5020557;28;20081;-67
2022/05/12 13:33:22;;;;;;;6.20;2.70;;;;;;;;;;5014804;28;20153;-68
2022/05/12 13:35:58;;;;;;;3.17;2.53;;;;;;;;;;5028085;28;20128;-68
2022/05/12 13:38:28;;;;;;;4.95;2.70;;;;;;;;;;5021410;28;20397;-67
2022/05/12 13:40:58;;;;;;;8.80;2.75;;;;;;;;;;5031359;28;20142;-67
2022/05/12 13:43:28;;;;;;;4.65;2.50;;;;;;;;;;5024530;28;20057;-67
2022/05/12 13:46:08;;;;;;;3.63;2.58;;;;;;;;;;5019246;28;20038;-67
2022/05/12 13:48:51;;;;;;;3.90;2.40;;;;;;;;;;5026911;28;20046;-67
2022/05/12 13:51:34;;;;;;;2.85;2.40;;;;;;;;;;5030799;28;20068;-68
2022/05/12 13:54:23;;;;;;;3.25;2.58;;;;;;;;;;5029288;28;20073;-68
2022/05/12 13:56:52;;;;;;;6.10;2.70;;;;;;;;;;5025135;28;20543;-68
2022/05/12 13:59:25;;;;;;;4.85;2.67;;;;;;;;;;5020113;28;20061;-68
2022/05/12 14:01:57;;;;;;;4.22;2.33;;;;;;;;;;5028766;28;20084;-68
2022/05/12 14:04:39;;;;;;;3.45;2.58;;;;;;;;;;5028042;28;20081;-69
2022/05/12 14:07:07;;;;;;;6.28;2.40;;;;;;;;;;5029600;28;20100;-67
2022/05/12 14:09:37;;;;;;;2.55;2.10;;;;;;;;;;5016285;28;20580;-68
2022/05/12 14:12:27;;;;;;;3.83;2.47;;;;;;;;;;5028951;28;20052;-68
2022/05/12 14:20:30;;;;;;;3.38;2.40;;;;;;;;;;5024320;28;20107;-68
2022/05/12 14:22:59;;;;;;;3.45;3.00;;;;;;;;;;5024934;28;20076;-68
2022/05/12 14:25:29;;;;;;;5.20;2.65;;;;;;;;;;5019728;28;20077;-68
2022/05/12 14:27:58;;;;;;;3.22;2.80;;;;;;;;;;5028244;28;20057;-68
2022/05/12 14:30:26;;;;;;;3.83;2.53;;;;;;;;;;5019378;28;20292;-68
2022/05/12 14:32:57;;;;;;;4.70;2.40;;;;;;;;;;5019255;28;20050;-68
2022/05/12 14:35:27;;;;;;;4.97;2.30;;;;;;;;;;5030991;28;20076;-68
2022/05/12 14:37:56;;;;;;;5.40;2.60;;;;;;;;;;5016094;28;20131;-68
2022/05/12 14:40:26;;;;;;;4.45;2.72;;;;;;;;;;5025522;28;20555;-67
2022/05/12 14:42:56;;;;;;;5.78;2.60;;;;;;;;;;5020730;28;20754;-68
2022/05/12 14:45:25;;;;;;;3.72;2.40;;;;;;;;;;5021633;28;20049;-68
2022/05/12 14:47:54;;;;;;;9.23;3.05;;;;;;;;;;5021405;28;20081;-68
2022/05/12 14:50:24;;;;;;;8.48;3.10;;;;;;;;;;5022062;28;20053;-68
2022/05/12 14:52:52;;;;;;;3.22;2.40;;;;;;;;;;5026583;28;20132;-68
2022/05/12 14:55:23;;;;;;;7.30;2.38;;;;;;;;;;5024849;28;20045;-68
2022/05/12 14:57:51;;;;;;;3.30;2.13;;;;;;;;;;5021512;28;20077;-68
2022/05/12 15:00:20;;;;;;;4.13;2.10;;;;;;;;;;5021829;28;20098;-68
2022/05/12 15:02:49;;;;;;;4.22;2.83;;;;;;;;;;5020455;28;20092;-68
2022/05/12 15:05:25;;;;;;;3.60;2.40;;;;;;;;;;5024407;28;20077;-68
2022/05/12 15:07:53;;;;;;;3.08;2.13;;;;;;;;;;5021841;28;20072;-68
2022/05/12 15:10:22;;;;;;;4.15;2.55;;;;;;;;;;5025940;28;20045;-69
2022/05/12 15:12:51;;;;;;;6.28;2.58;;;;;;;;;;5025969;28;20389;-70
2022/05/12 15:15:19;;;;;;;6.97;2.92;;;;;;;;;;5021745;28;20073;-68
2022/05/12 15:17:49;;;;;;;6.57;2.38;;;;;;;;;;5027490;28;20401;-67
2022/05/12 15:20:18;;;;;;;4.43;2.00;;;;;;;;;;5024749;28;20156;-68
2022/05/12 15:22:49;;;;;;;4.25;2.60;;;;;;;;;;5030971;28;20061;-68
2022/05/12 15:25:18;;;;;;;3.75;2.35;;;;;;;;;;5024473;28;20139;-68
2022/05/12 15:27:48;;;;;;;6.80;2.20;;;;;;;;;;5026321;28;20137;-69
2022/05/12 15:30:18;;;;;;;4.75;2.67;;;;;;;;;;5026647;28;20047;-68
2022/05/12 15:32:47;;;;;;;3.60;2.28;;;;;;;;;;5021176;28;20068;-69
2022/05/12 15:35:16;;;;;;;3.65;2.20;;;;;;;;;;5013860;28;20060;-68
2022/05/12 15:37:45;;;;;;;4.40;2.65;;;;;;;;;;5026545;28;20406;-68